sensor_id;sensor_type;location;lat;lon;timestamp;pressure;altitude;pressure_sealevel;temperature;humidity
3254;BME280;1639;42.804;23.342;2023-04-21T00:01:48;73133.59;;;-148.52;100.00
3254;BME280;1639;42.804;23.342;2023-04-21T00:04:14;73148.09;;;-148.52;98.83
3254;BME280;1639;42.804;23.342;2023-04-21T00:06:40;73191.53;;;-148.52;97.29
3254;BME280;1639;42.804;23.342;2023-04-21T00:09:07;73218.41;;;-148.52;100.00
3254;BME280;1639;42.804;23.342;2023-04-21T00:11:32;73210.13;;;-148.52;100.00
3254;BME280;1639;42.804;23.342;2023-04-21T00:13:58;73218.41;;;-148.52;100.00
3254;BME280;1639;42.804;23.342;2023-04-21T00:16:23;73220.47;;;-148.52;100.00
3254;BME280;1639;42.804;23.342;2023-04-21T00:18:48;73224.63;;;-148.52;100.00
3254;BME280;1639;42.804;23.342;2023-04-21T00:21:14;73216.34;;;-148.52;100.00
3254;BME280;1639;42.804;23.342;2023-04-21T00:23:40;73216.34;;;-148.52;100.00
3254;BME280;1639;42.804;23.342;2023-04-21T00:26:05;73220.47;;;-148.52;100.00
3254;BME280;1639;42.804;23.342;2023-04-21T00:28:31;73226.69;;;-148.52;100.00
3254;BME280;1639;42.804;23.342;2023-04-21T00:30:56;73222.53;;;-148.52;100.00
3254;BME280;1639;42.804;23.342;2023-04-21T00:33:22;73232.88;;;-148.52;100.00
3254;BME280;1639;42.804;23.342;2023-04-21T00:35:47;73251.50;;;-148.52;100.00
3254;BME280;1639;42.804;23.342;2023-04-21T00:38:13;73249.44;;;-148.52;100.00
3254;BME280;1639;42.804;23.342;2023-04-21T00:40:38;73265.97;;;-148.52;100.00
3254;BME280;1639;42.804;23.342;2023-04-21T00:43:07;73274.25;;;-148.52;100.00
3254;BME280;1639;42.804;23.342;2023-04-21T00:45:32;73290.81;;;-148.52;100.00
3254;BME280;1639;42.804;23.342;2023-04-21T00:47:58;73290.81;;;-148.52;100.00
3254;BME280;1639;42.804;23.342;2023-04-21T00:50:23;73313.56;;;-148.52;100.00
3254;BME280;1639;42.804;23.342;2023-04-21T00:52:49;73328.03;;;-148.52;100.00
3254;BME280;1639;42.804;23.342;2023-04-21T00:55:15;73330.09;;;-148.52;100.00
3254;BME280;1639;42.804;23.342;2023-04-21T00:57:41;73330.09;;;-148.52;100.00
3254;BME280;1639;42.804;23.342;2023-04-21T01:00:07;73338.38;;;-148.52;100.00
3254;BME280;1639;42.804;23.342;2023-04-21T01:02:36;73348.72;;;-148.52;100.00
3254;BME280;1639;42.804;23.342;2023-04-21T01:05:05;73348.72;;;-148.52;100.00
3254;BME280;1639;42.804;23.342;2023-04-21T01:07:34;73344.56;;;-148.52;100.00
3254;BME280;1639;42.804;23.342;2023-04-21T01:10:00;73357.00;;;-148.52;100.00
3254;BME280;1639;42.804;23.342;2023-04-21T01:12:26;73352.84;;;-148.52;100.00
3254;BME280;1639;42.804;23.342;2023-04-21T01:14:51;73369.41;;;-148.52;100.00
3254;BME280;1639;42.804;23.342;2023-04-21T01:17:16;73365.25;;;-148.52;100.00
3254;BME280;1639;42.804;23.342;2023-04-21T01:19:43;73375.59;;;-148.52;100.00
3254;BME280;1639;42.804;23.342;2023-04-21T01:22:11;73365.25;;;-148.52;100.00
3254;BME280;1639;42.804;23.342;2023-04-21T01:24:40;73369.41;;;-148.52;100.00
3254;BME280;1639;42.804;23.342;2023-04-21T01:27:10;73369.41;;;-148.52;100.00
3254;BME280;1639;42.804;23.342;2023-04-21T01:29:37;73365.25;;;-148.52;100.00
3254;BME280;1639;42.804;23.342;2023-04-21T01:32:07;73377.66;;;-148.52;100.00
3254;BME280;1639;42.804;23.342;2023-04-21T01:34:33;73377.66;;;-148.52;100.00
3254;BME280;1639;42.804;23.342;2023-04-21T01:36:59;73404.56;;;-148.52;100.00
3254;BME280;1639;42.804;23.342;2023-04-21T01:39:25;73421.09;;;-148.52;100.00
3254;BME280;1639;42.804;23.342;2023-04-21T01:41:50;73408.69;;;-148.52;100.00
3254;BME280;1639;42.804;23.342;2023-04-21T01:44:16;73402.50;;;-148.52;100.00
3254;BME280;1639;42.804;23.342;2023-04-21T01:46:41;73398.34;;;-148.52;100.00
3254;BME280;1639;42.804;23.342;2023-04-21T01:49:06;73392.16;;;-148.52;100.00
3254;BME280;1639;42.804;23.342;2023-04-21T01:51:32;73388.00;;;-148.52;100.00
3254;BME280;1639;42.804;23.342;2023-04-21T01:53:57;73392.16;;;-148.52;100.00
3254;BME280;1639;42.804;23.342;2023-04-21T01:56:22;73383.88;;;-148.52;100.00
3254;BME280;1639;42.804;23.342;2023-04-21T01:58:48;73394.22;;;-148.52;100.00
3254;BME280;1639;42.804;23.342;2023-04-21T02:01:13;73398.34;;;-148.52;100.00
3254;BME280;1639;42.804;23.342;2023-04-21T02:03:39;73406.63;;;-148.52;100.00
3254;BME280;1639;42.804;23.342;2023-04-21T02:06:04;73402.50;;;-148.52;100.00
3254;BME280;1639;42.804;23.342;2023-04-21T02:08:30;73400.41;;;-148.52;100.00
3254;BME280;1639;42.804;23.342;2023-04-21T02:10:55;73402.50;;;-148.52;100.00
3254;BME280;1639;42.804;23.342;2023-04-21T02:13:21;73419.03;;;-148.52;100.00
3254;BME280;1639;42.804;23.342;2023-04-21T02:15:46;73431.44;;;-148.52;100.00
3254;BME280;1639;42.804;23.342;2023-04-21T02:18:11;73427.31;;;-148.52;100.00
3254;BME280;1639;42.804;23.342;2023-04-21T02:20:37;73431.44;;;-148.52;100.00
3254;BME280;1639;42.804;23.342;2023-04-21T02:23:03;73427.31;;;-148.52;100.00
3254;BME280;1639;42.804;23.342;2023-04-21T02:25:28;73441.78;;;-148.52;100.00
3254;BME280;1639;42.804;23.342;2023-04-21T02:27:54;73454.19;;;-148.52;100.00
3254;BME280;1639;42.804;23.342;2023-04-21T02:30:20;73489.38;;;-148.52;100.00
3254;BME280;1639;42.804;23.342;2023-04-21T02:32:45;73462.47;;;-148.52;100.00
3254;BME280;1639;42.804;23.342;2023-04-21T02:35:11;73450.06;;;-148.52;100.00
3254;BME280;1639;42.804;23.342;2023-04-21T02:37:36;73441.78;;;-148.52;100.00
3254;BME280;1639;42.804;23.342;2023-04-21T02:40:02;73439.72;;;-148.52;100.00
3254;BME280;1639;42.804;23.342;2023-04-21T02:42:27;73441.78;;;-148.52;100.00
3254;BME280;1639;42.804;23.342;2023-04-21T02:44:53;73452.13;;;-148.52;100.00
3254;BME280;1639;42.804;23.342;2023-04-21T02:47:18;73452.13;;;-148.52;100.00
3254;BME280;1639;42.804;23.342;2023-04-21T02:49:43;73437.66;;;-148.52;100.00
3254;BME280;1639;42.804;23.342;2023-04-21T02:52:09;73433.53;;;-148.52;100.00
3254;BME280;1639;42.804;23.342;2023-04-21T02:54:34;73431.44;;;-148.52;100.00
3254;BME280;1639;42.804;23.342;2023-04-21T02:57:00;73425.25;;;-148.52;100.00
3254;BME280;1639;42.804;23.342;2023-04-21T02:59:26;73427.31;;;-148.52;100.00
3254;BME280;1639;42.804;23.342;2023-04-21T03:01:51;73433.53;;;-148.52;100.00
3254;BME280;1639;42.804;23.342;2023-04-21T03:04:16;73456.28;;;-148.52;100.00
3254;BME280;1639;42.804;23.342;2023-04-21T03:06:43;73454.19;;;-148.52;100.00
3254;BME280;1639;42.804;23.342;2023-04-21T03:09:09;73458.34;;;-148.52;100.00
3254;BME280;1639;42.804;23.342;2023-04-21T03:11:34;73462.47;;;-148.52;100.00
3254;BME280;1639;42.804;23.342;2023-04-21T03:14:00;73456.28;;;-148.52;100.00
3254;BME280;1639;42.804;23.342;2023-04-21T03:16:25;73464.53;;;-148.52;100.00
3254;BME280;1639;42.804;23.342;2023-04-21T03:18:52;73468.69;;;-148.52;100.00
3254;BME280;1639;42.804;23.342;2023-04-21T03:21:17;73468.69;;;-148.52;100.00
3254;BME280;1639;42.804;23.342;2023-04-21T03:23:43;73474.88;;;-148.52;100.00
3254;BME280;1639;42.804;23.342;2023-04-21T03:26:08;73466.63;;;-148.52;100.00
3254;BME280;1639;42.804;23.342;2023-04-21T03:28:34;73474.88;;;-148.52;100.00
3254;BME280;1639;42.804;23.342;2023-04-21T03:30:59;73497.63;;;-148.52;100.00
3254;BME280;1639;42.804;23.342;2023-04-21T03:33:25;73495.56;;;-148.52;100.00
3254;BME280;1639;42.804;23.342;2023-04-21T03:35:50;73514.19;;;-148.52;100.00
3254;BME280;1639;42.804;23.342;2023-04-21T03:38:16;73495.56;;;-148.52;100.00
3254;BME280;1639;42.804;23.342;2023-04-21T03:40:41;73507.97;;;-148.52;100.00
3254;BME280;1639;42.804;23.342;2023-04-21T03:43:06;73489.38;;;-148.52;100.00
3254;BME280;1639;42.804;23.342;2023-04-21T03:45:34;73485.22;;;-148.52;100.00
3254;BME280;1639;42.804;23.342;2023-04-21T03:48:00;73472.81;;;-148.52;100.00
3254;BME280;1639;42.804;23.342;2023-04-21T03:50:25;73470.75;;;-148.52;100.00
3254;BME280;1639;42.804;23.342;2023-04-21T03:52:50;73483.16;;;-148.52;100.00
3254;BME280;1639;42.804;23.342;2023-04-21T03:55:16;73485.22;;;-148.52;100.00
3254;BME280;1639;42.804;23.342;2023-04-21T03:57:41;73485.22;;;-148.52;100.00
3254;BME280;1639;42.804;23.342;2023-04-21T04:00:08;73518.31;;;-148.52;100.00
3254;BME280;1639;42.804;23.342;2023-04-21T04:02:35;73539.00;;;-148.52;100.00
3254;BME280;1639;42.804;23.342;2023-04-21T04:05:02;73512.13;;;-148.52;100.00
3254;BME280;1639;42.804;23.342;2023-04-21T04:07:27;73503.84;;;-148.52;100.00
3254;BME280;1639;42.804;23.342;2023-04-21T04:09:53;73493.50;;;-148.52;100.00
3254;BME280;1639;42.804;23.342;2023-04-21T04:12:18;73483.16;;;-148.52;100.00
3254;BME280;1639;42.804;23.342;2023-04-21T04:14:43;73466.63;;;-148.52;100.00
3254;BME280;1639;42.804;23.342;2023-04-21T04:17:09;73464.53;;;-148.52;100.00
3254;BME280;1639;42.804;23.342;2023-04-21T04:19:34;73466.63;;;-148.52;100.00
3254;BME280;1639;42.804;23.342;2023-04-21T04:22:00;73454.19;;;-148.52;100.00
3254;BME280;1639;42.804;23.342;2023-04-21T04:24:26;73443.84;;;-148.52;100.00
3254;BME280;1639;42.804;23.342;2023-04-21T04:26:52;73425.25;;;-148.52;100.00
3254;BME280;1639;42.804;23.342;2023-04-21T04:29:19;73410.75;;;-148.52;100.00
3254;BME280;1639;42.804;23.342;2023-04-21T04:31:46;73398.34;;;-148.52;100.00
3254;BME280;1639;42.804;23.342;2023-04-21T04:34:11;73385.94;;;-148.52;100.00
3254;BME280;1639;42.804;23.342;2023-04-21T04:36:36;73365.25;;;-148.52;100.00
3254;BME280;1639;42.804;23.342;2023-04-21T04:39:02;73359.06;;;-148.52;100.00
3254;BME280;1639;42.804;23.342;2023-04-21T04:41:31;73350.78;;;-148.52;100.00
3254;BME280;1639;42.804;23.342;2023-04-21T04:43:58;73354.91;;;-148.52;100.00
3254;BME280;1639;42.804;23.342;2023-04-21T04:46:24;73350.78;;;-148.52;100.00
3254;BME280;1639;42.804;23.342;2023-04-21T04:48:50;73357.00;;;-148.52;100.00
3254;BME280;1639;42.804;23.342;2023-04-21T04:51:15;73357.00;;;-148.52;100.00
3254;BME280;1639;42.804;23.342;2023-04-21T04:53:41;73348.72;;;-148.52;100.00
3254;BME280;1639;42.804;23.342;2023-04-21T04:56:07;73336.31;;;-148.52;100.00
3254;BME280;1639;42.804;23.342;2023-04-21T04:58:32;73334.22;;;-148.52;100.00
3254;BME280;1639;42.804;23.342;2023-04-21T05:00:57;73313.56;;;-148.52;100.00
3254;BME280;1639;42.804;23.342;2023-04-21T05:03:23;73313.56;;;-148.52;100.00
3254;BME280;1639;42.804;23.342;2023-04-21T05:05:48;73303.22;;;-148.52;100.00
3254;BME280;1639;42.804;23.342;2023-04-21T05:08:14;73294.94;;;-148.52;100.00
3254;BME280;1639;42.804;23.342;2023-04-21T05:10:39;73280.47;;;-148.52;100.00
3254;BME280;1639;42.804;23.342;2023-04-21T05:13:05;73261.84;;;-148.52;100.00
3254;BME280;1639;42.804;23.342;2023-04-21T05:15:30;73232.88;;;-148.52;100.00
3254;BME280;1639;42.804;23.342;2023-04-21T05:17:56;73218.41;;;-148.52;100.00
3254;BME280;1639;42.804;23.342;2023-04-21T05:20:21;73208.06;;;-148.52;100.00
3254;BME280;1639;42.804;23.342;2023-04-21T05:22:47;73193.59;;;-148.52;100.00
3254;BME280;1639;42.804;23.342;2023-04-21T05:25:13;73189.44;;;-148.52;100.00
3254;BME280;1639;42.804;23.342;2023-04-21T05:27:41;73183.25;;;-148.52;100.00
3254;BME280;1639;42.804;23.342;2023-04-21T05:30:07;73164.63;;;-148.52;100.00
3254;BME280;1639;42.804;23.342;2023-04-21T05:32:33;73137.75;;;-148.52;100.00
3254;BME280;1639;42.804;23.342;2023-04-21T05:34:58;73133.59;;;-148.52;100.00
3254;BME280;1639;42.804;23.342;2023-04-21T05:37:25;73112.91;;;-148.52;100.00
3254;BME280;1639;42.804;23.342;2023-04-21T05:39:50;73088.09;;;-148.52;100.00
3254;BME280;1639;42.804;23.342;2023-04-21T05:42:16;73063.28;;;-148.52;100.00
3254;BME280;1639;42.804;23.342;2023-04-21T05:44:42;73021.91;;;-148.52;100.00
3254;BME280;1639;42.804;23.342;2023-04-21T05:47:08;72999.16;;;-148.52;100.00
3254;BME280;1639;42.804;23.342;2023-04-21T05:49:33;72970.22;;;-148.52;100.00
3254;BME280;1639;42.804;23.342;2023-04-21T05:51:59;72955.75;;;-148.52;100.00
3254;BME280;1639;42.804;23.342;2023-04-21T05:54:24;72939.19;;;-148.52;100.00
3254;BME280;1639;42.804;23.342;2023-04-21T05:56:50;72918.50;;;-148.52;100.00
3254;BME280;1639;42.804;23.342;2023-04-21T05:59:15;72864.75;;;-148.52;100.00
3254;BME280;1639;42.804;23.342;2023-04-21T06:01:42;72860.59;;;-148.52;100.00
3254;BME280;1639;42.804;23.342;2023-04-21T06:04:07;72856.47;;;-148.52;100.00
3254;BME280;1639;42.804;23.342;2023-04-21T06:06:32;72819.25;;;-148.52;100.00
3254;BME280;1639;42.804;23.342;2023-04-21T06:08:58;72813.03;;;-148.52;100.00
3254;BME280;1639;42.804;23.342;2023-04-21T06:11:23;72773.75;;;-148.52;100.00
3254;BME280;1639;42.804;23.342;2023-04-21T06:13:49;72757.19;;;-148.52;100.00
3254;BME280;1639;42.804;23.342;2023-04-21T06:16:16;72748.91;;;-148.52;100.00
3254;BME280;1639;42.804;23.342;2023-04-21T06:18:42;72746.84;;;-148.52;100.00
3254;BME280;1639;42.804;23.342;2023-04-21T06:21:07;72719.97;;;-148.52;100.00
3254;BME280;1639;42.804;23.342;2023-04-21T06:23:33;72699.28;;;-148.52;100.00
3254;BME280;1639;42.804;23.342;2023-04-21T06:26:03;72676.53;;;-148.52;100.00
3254;BME280;1639;42.804;23.342;2023-04-21T06:28:30;72662.06;;;-148.52;100.00
3254;BME280;1639;42.804;23.342;2023-04-21T06:30:56;72628.97;;;-148.52;100.00
3254;BME280;1639;42.804;23.342;2023-04-21T06:33:21;72606.22;;;-148.52;100.00
3254;BME280;1639;42.804;23.342;2023-04-21T06:35:46;72566.94;;;-148.52;100.00
3254;BME280;1639;42.804;23.342;2023-04-21T06:38:12;72548.31;;;-148.52;100.00
3254;BME280;1639;42.804;23.342;2023-04-21T06:40:37;72521.44;;;-148.52;100.00
3254;BME280;1639;42.804;23.342;2023-04-21T06:43:02;72498.69;;;-148.52;100.00
3254;BME280;1639;42.804;23.342;2023-04-21T06:45:28;72492.50;;;-148.52;100.00
3254;BME280;1639;42.804;23.342;2023-04-21T06:47:53;72471.81;;;-148.52;100.00
3254;BME280;1639;42.804;23.342;2023-04-21T06:50:18;72444.94;;;-148.52;100.00
3254;BME280;1639;42.804;23.342;2023-04-21T06:52:44;72428.38;;;-148.52;100.00
3254;BME280;1639;42.804;23.342;2023-04-21T06:55:10;72418.03;;;-148.52;100.00
3254;BME280;1639;42.804;23.342;2023-04-21T06:57:35;72401.50;;;-148.52;100.00
3254;BME280;1639;42.804;23.342;2023-04-21T07:00:01;72376.69;;;-148.52;100.00
3254;BME280;1639;42.804;23.342;2023-04-21T07:02:26;72347.72;;;-148.52;100.00
3254;BME280;1639;42.804;23.342;2023-04-21T07:04:51;72327.06;;;-148.52;100.00
3254;BME280;1639;42.804;23.342;2023-04-21T07:07:17;72306.38;;;-148.52;100.00
3254;BME280;1639;42.804;23.342;2023-04-21T07:09:42;72306.38;;;-148.52;100.00
3254;BME280;1639;42.804;23.342;2023-04-21T07:12:11;72291.91;;;-148.52;89.96
3254;BME280;1639;42.804;23.342;2023-04-21T07:14:36;72260.88;;;-148.52;72.83
3254;BME280;1639;42.804;23.342;2023-04-21T07:17:02;72258.81;;;-148.52;63.54
3254;BME280;1639;42.804;23.342;2023-04-21T07:19:27;72238.13;;;-148.52;63.18
3254;BME280;1639;42.804;23.342;2023-04-21T07:21:52;72219.53;;;-148.52;61.22
3254;BME280;1639;42.804;23.342;2023-04-21T07:24:18;72184.38;;;-148.52;61.52
3254;BME280;1639;42.804;23.342;2023-04-21T07:26:43;72157.50;;;-148.52;59.51
3254;BME280;1639;42.804;23.342;2023-04-21T07:29:08;72140.94;;;-148.52;59.61
3254;BME280;1639;42.804;23.342;2023-04-21T07:31:34;72122.34;;;-148.52;56.94
3254;BME280;1639;42.804;23.342;2023-04-21T07:33:59;72124.41;;;-148.52;55.00
3254;BME280;1639;42.804;23.342;2023-04-21T07:36:25;72138.88;;;-148.52;54.28
3254;BME280;1639;42.804;23.342;2023-04-21T07:38:52;72171.97;;;-148.52;54.87
3254;BME280;1639;42.804;23.342;2023-04-21T07:41:18;72171.97;;;-148.52;54.92
3254;BME280;1639;42.804;23.342;2023-04-21T07:43:44;72188.50;;;-148.52;53.84
3254;BME280;1639;42.804;23.342;2023-04-21T07:46:09;72200.91;;;-148.52;54.60
3254;BME280;1639;42.804;23.342;2023-04-21T07:48:35;72157.50;;;-148.52;55.65
3254;BME280;1639;42.804;23.342;2023-04-21T07:51:00;72116.13;;;-148.52;53.91
3254;BME280;1639;42.804;23.342;2023-04-21T07:53:27;72078.91;;;-148.52;52.17
3254;BME280;1639;42.804;23.342;2023-04-21T07:55:52;72033.44;;;-148.52;52.06
3254;BME280;1639;42.804;23.342;2023-04-21T07:58:19;72004.47;;;-148.52;51.58
3254;BME280;1639;42.804;23.342;2023-04-21T08:00:45;71983.81;;;-148.52;51.96
3254;BME280;1639;42.804;23.342;2023-04-21T08:03:10;71952.78;;;-148.52;51.28
3254;BME280;1639;42.804;23.342;2023-04-21T08:05:36;71932.13;;;-148.52;50.22
3254;BME280;1639;42.804;23.342;2023-04-21T08:08:02;71942.44;;;-148.52;47.67
3254;BME280;1639;42.804;23.342;2023-04-21T08:10:27;71944.53;;;-148.52;48.84
3254;BME280;1639;42.804;23.342;2023-04-21T08:12:53;71936.25;;;-148.52;49.25
3254;BME280;1639;42.804;23.342;2023-04-21T08:15:18;71930.03;;;-148.52;49.37
3254;BME280;1639;42.804;23.342;2023-04-21T08:17:44;71917.63;;;-148.52;49.67
3254;BME280;1639;42.804;23.342;2023-04-21T08:20:10;71905.22;;;-148.52;49.87
3254;BME280;1639;42.804;23.342;2023-04-21T08:22:35;71950.72;;;-148.52;47.55
3254;BME280;1639;42.804;23.342;2023-04-21T08:25:02;71996.22;;;-148.52;49.55
3254;BME280;1639;42.804;23.342;2023-04-21T08:27:27;72023.09;;;-148.52;49.74
3254;BME280;1639;42.804;23.342;2023-04-21T08:29:53;72043.78;;;-148.52;50.05
3254;BME280;1639;42.804;23.342;2023-04-21T08:32:18;72014.81;;;-148.52;50.82
3254;BME280;1639;42.804;23.342;2023-04-21T08:34:51;72031.38;;;-148.52;51.14
3254;BME280;1639;42.804;23.342;2023-04-21T08:37:17;72043.78;;;-148.52;50.20
3254;BME280;1639;42.804;23.342;2023-04-21T08:39:46;72076.84;;;-148.52;50.90
3254;BME280;1639;42.804;23.342;2023-04-21T08:42:13;72099.59;;;-148.52;51.59
3254;BME280;1639;42.804;23.342;2023-04-21T08:44:39;72118.22;;;-148.52;52.03
3254;BME280;1639;42.804;23.342;2023-04-21T08:47:08;72140.94;;;-148.52;53.10
3254;BME280;1639;42.804;23.342;2023-04-21T08:49:35;72157.50;;;-148.52;53.22
3254;BME280;1639;42.804;23.342;2023-04-21T08:52:01;72188.50;;;-148.52;54.87
3254;BME280;1639;42.804;23.342;2023-04-21T08:54:27;72198.84;;;-148.52;54.61
3254;BME280;1639;42.804;23.342;2023-04-21T08:56:52;72227.78;;;-148.52;55.65
3254;BME280;1639;42.804;23.342;2023-04-21T08:59:17;72240.22;;;-148.52;55.29
3254;BME280;1639;42.804;23.342;2023-04-21T09:02:05;72244.34;;;-148.52;56.03
3254;BME280;1639;42.804;23.342;2023-04-21T09:04:30;72248.47;;;-148.52;56.67
3254;BME280;1639;42.804;23.342;2023-04-21T09:06:55;72236.06;;;-148.52;56.47
3254;BME280;1639;42.804;23.342;2023-04-21T09:09:21;72236.06;;;-148.52;55.87
3254;BME280;1639;42.804;23.342;2023-04-21T09:11:56;72225.72;;;-148.52;55.93
3254;BME280;1639;42.804;23.342;2023-04-21T09:14:31;72215.38;;;-148.52;55.15
3254;BME280;1639;42.804;23.342;2023-04-21T09:17:03;72207.13;;;-148.52;54.25
3254;BME280;1639;42.804;23.342;2023-04-21T09:19:29;72190.56;;;-148.52;53.80
3254;BME280;1639;42.804;23.342;2023-04-21T09:21:59;72109.94;;;-148.52;55.49
3254;BME280;1639;42.804;23.342;2023-04-21T09:24:24;72004.47;;;-148.52;53.90
3254;BME280;1639;42.804;23.342;2023-04-21T09:26:50;71919.72;;;-148.52;49.65
3254;BME280;1639;42.804;23.342;2023-04-21T09:29:16;71905.22;;;-148.52;47.19
3254;BME280;1639;42.804;23.342;2023-04-21T09:31:43;71936.25;;;-148.52;47.30
3254;BME280;1639;42.804;23.342;2023-04-21T09:34:19;71973.47;;;-148.52;48.10
3254;BME280;1639;42.804;23.342;2023-04-21T09:36:45;71992.06;;;-148.52;47.69
3254;BME280;1639;42.804;23.342;2023-04-21T09:39:12;72008.63;;;-148.52;48.82
3254;BME280;1639;42.804;23.342;2023-04-21T09:41:37;72021.03;;;-148.52;49.21
3254;BME280;1639;42.804;23.342;2023-04-21T09:44:02;72016.88;;;-148.52;49.33
3254;BME280;1639;42.804;23.342;2023-04-21T09:46:31;72016.88;;;-148.52;49.56
3254;BME280;1639;42.804;23.342;2023-04-21T09:48:59;71979.66;;;-148.52;50.86
3254;BME280;1639;42.804;23.342;2023-04-21T09:51:25;72000.34;;;-148.52;47.78
3254;BME280;1639;42.804;23.342;2023-04-21T09:53:52;72000.34;;;-148.52;49.22
3254;BME280;1639;42.804;23.342;2023-04-21T09:56:23;71975.53;;;-148.52;49.04
3254;BME280;1639;42.804;23.342;2023-04-21T09:58:54;71940.38;;;-148.52;49.01
3254;BME280;1639;42.804;23.342;2023-04-21T10:01:23;71946.59;;;-148.52;47.90
3254;BME280;1639;42.804;23.342;2023-04-21T10:03:51;71959.00;;;-148.52;48.58
3254;BME280;1639;42.804;23.342;2023-04-21T10:06:17;71954.84;;;-148.52;47.96
3254;BME280;1639;42.804;23.342;2023-04-21T10:08:43;71979.66;;;-148.52;50.36
3254;BME280;1639;42.804;23.342;2023-04-21T10:11:09;71938.31;;;-148.52;47.70
3254;BME280;1639;42.804;23.342;2023-04-21T10:13:36;71878.34;;;-148.52;47.81
3254;BME280;1639;42.804;23.342;2023-04-21T10:16:07;71863.88;;;-148.52;46.09
3254;BME280;1639;42.804;23.342;2023-04-21T10:18:43;71878.34;;;-148.52;45.85
3254;BME280;1639;42.804;23.342;2023-04-21T10:21:11;71849.41;;;-148.52;44.17
3254;BME280;1639;42.804;23.342;2023-04-21T10:23:44;71857.69;;;-148.52;44.61
3254;BME280;1639;42.804;23.342;2023-04-21T10:26:16;71886.63;;;-148.52;44.11
3254;BME280;1639;42.804;23.342;2023-04-21T10:39:28;72240.22;;;-148.52;55.03
3254;BME280;1639;42.804;23.342;2023-04-21T10:44:42;72316.72;;;-148.52;56.50
3254;BME280;1639;42.804;23.342;2023-04-21T10:47:07;72335.31;;;-148.52;58.55
3254;BME280;1639;42.804;23.342;2023-04-21T10:49:37;72364.28;;;-148.52;61.18
3254;BME280;1639;42.804;23.342;2023-04-21T10:52:05;72382.88;;;-148.52;64.20
3254;BME280;1639;42.804;23.342;2023-04-21T10:57:16;72341.53;;;-148.52;60.89
3254;BME280;1639;42.804;23.342;2023-04-21T10:59:43;72316.72;;;-148.52;59.66
3254;BME280;1639;42.804;23.342;2023-04-21T11:02:13;72322.91;;;-148.52;59.27
3254;BME280;1639;42.804;23.342;2023-04-21T11:04:39;72314.66;;;-148.52;57.59
3254;BME280;1639;42.804;23.342;2023-04-21T11:07:13;72291.91;;;-148.52;58.67
3254;BME280;1639;42.804;23.342;2023-04-21T11:09:41;72258.81;;;-148.52;55.67
3254;BME280;1639;42.804;23.342;2023-04-21T11:14:35;72215.38;;;-148.52;53.90
3254;BME280;1639;42.804;23.342;2023-04-21T11:17:01;72190.56;;;-148.52;53.68
3254;BME280;1639;42.804;23.342;2023-04-21T11:19:27;72194.72;;;-148.52;50.67
3254;BME280;1639;42.804;23.342;2023-04-21T11:21:53;72207.13;;;-148.52;49.72
3254;BME280;1639;42.804;23.342;2023-04-21T11:24:22;72186.44;;;-148.52;50.07
3254;BME280;1639;42.804;23.342;2023-04-21T11:26:47;72165.75;;;-148.52;48.94
3254;BME280;1639;42.804;23.342;2023-04-21T11:29:13;72147.16;;;-148.52;50.39
3254;BME280;1639;42.804;23.342;2023-04-21T11:31:41;72105.81;;;-148.52;51.59
3254;BME280;1639;42.804;23.342;2023-04-21T11:34:08;72064.44;;;-148.52;47.51
3254;BME280;1639;42.804;23.342;2023-04-21T11:36:43;72060.31;;;-148.52;47.23
3254;BME280;1639;42.804;23.342;2023-04-21T11:39:11;72062.38;;;-148.52;47.64
3254;BME280;1639;42.804;23.342;2023-04-21T11:41:44;72074.78;;;-148.52;46.36
3254;BME280;1639;42.804;23.342;2023-04-21T11:44:10;72064.44;;;-148.52;46.15
3254;BME280;1639;42.804;23.342;2023-04-21T11:46:36;72049.97;;;-148.52;47.33
3254;BME280;1639;42.804;23.342;2023-04-21T11:49:14;72078.91;;;-148.52;47.65
3254;BME280;1639;42.804;23.342;2023-04-21T11:51:41;72112.00;;;-148.52;47.04
3254;BME280;1639;42.804;23.342;2023-04-21T11:54:09;72103.72;;;-148.52;50.78
3254;BME280;1639;42.804;23.342;2023-04-21T11:56:39;72083.06;;;-148.52;47.82
3254;BME280;1639;42.804;23.342;2023-04-21T11:59:25;72070.66;;;-148.52;47.03
3254;BME280;1639;42.804;23.342;2023-04-21T12:01:52;72066.50;;;-148.52;48.12
3254;BME280;1639;42.804;23.342;2023-04-21T12:04:22;72012.75;;;-148.52;49.23
3254;BME280;1639;42.804;23.342;2023-04-21T12:06:58;71971.41;;;-148.52;46.53
3254;BME280;1639;42.804;23.342;2023-04-21T12:09:24;71996.22;;;-148.52;46.72
3254;BME280;1639;42.804;23.342;2023-04-21T12:11:52;71977.59;;;-148.52;48.78
3254;BME280;1639;42.804;23.342;2023-04-21T12:14:22;72008.63;;;-148.52;47.94
3254;BME280;1639;42.804;23.342;2023-04-21T12:16:56;72021.03;;;-148.52;46.46
3254;BME280;1639;42.804;23.342;2023-04-21T12:22:06;72054.09;;;-148.52;47.64
3254;BME280;1639;42.804;23.342;2023-04-21T12:24:32;72031.38;;;-148.52;47.42
3254;BME280;1639;42.804;23.342;2023-04-21T12:26:57;72029.28;;;-148.52;45.26
3254;BME280;1639;42.804;23.342;2023-04-21T12:29:23;72025.16;;;-148.52;48.48
3254;BME280;1639;42.804;23.342;2023-04-21T12:31:48;72037.56;;;-148.52;47.34
3254;BME280;1639;42.804;23.342;2023-04-21T12:34:14;72076.84;;;-148.52;46.90
3254;BME280;1639;42.804;23.342;2023-04-21T12:36:40;72074.78;;;-148.52;47.25
3254;BME280;1639;42.804;23.342;2023-04-21T12:39:05;72078.91;;;-148.52;48.55
3254;BME280;1639;42.804;23.342;2023-04-21T12:41:31;72095.47;;;-148.52;46.25
3254;BME280;1639;42.804;23.342;2023-04-21T12:43:58;72101.66;;;-148.52;48.19
3254;BME280;1639;42.804;23.342;2023-04-21T12:46:24;72109.94;;;-148.52;49.44
3254;BME280;1639;42.804;23.342;2023-04-21T12:48:50;72116.13;;;-148.52;48.33
3254;BME280;1639;42.804;23.342;2023-04-21T12:51:16;72120.28;;;-148.52;49.02
3254;BME280;1639;42.804;23.342;2023-04-21T12:53:42;72132.69;;;-148.52;49.32
3254;BME280;1639;42.804;23.342;2023-04-21T12:56:07;72143.03;;;-148.52;49.02
3254;BME280;1639;42.804;23.342;2023-04-21T12:58:33;72140.94;;;-148.52;48.89
3254;BME280;1639;42.804;23.342;2023-04-21T13:00:58;72153.34;;;-148.52;49.31
3254;BME280;1639;42.804;23.342;2023-04-21T13:03:24;72145.09;;;-148.52;49.44